EST,Max TemperatureF,Mean TemperatureF,Min TemperatureF,Max Dew PointF,MeanDew PointF,Min DewpointF,Max Humidity, Mean Humidity, Min Humidity, Max Sea Level PressureIn, Mean Sea Level PressureIn, Min Sea Level PressureIn, Max VisibilityMiles, Mean VisibilityMiles, Min VisibilityMiles, Max Wind SpeedMPH, Mean Wind SpeedMPH, Max Gust SpeedMPH,PrecipitationIn, CloudCover, Events, WindDirDegrees
2012-2-1,58,47,36,44,40,31,77,64,51,30.09,30.04,29.98,10,10,8,21,6,31,0.01,5,Rain,267
2012-2-2,42,35,27,33,29,23,89,72,55,30.45,30.24,30.07,10,8,5,15,3,21,0.00,6,,342
2012-2-3,50,36,22,29,24,18,92,69,46,30.56,30.46,30.36,10,8,0,8,1,10,0.00,0,,143
2012-2-4,36,32,28,31,30,25,89,82,75,30.37,30.26,30.14,10,3,0,7,1,9,0.32,8,Fog-Rain-Snow,45
2012-2-5,45,36,26,30,25,21,89,65,41,30.28,30.21,30.12,10,10,4,9,3,12,0.00,2,,14
2012-2-6,48,35,21,28,23,18,92,67,41,30.26,30.20,30.12,10,6,2,12,2,16,0.00,0,,237
2012-2-7,39,32,24,27,25,20,85,72,59,30.30,30.24,30.15,10,9,6,9,3,13,0.00,7,,18
2012-2-8,34,29,23,27,25,18,85,76,66,30.30,30.23,30.19,10,5,0,12,5,15,0.08,7,Fog-Snow,9
2012-2-9,36,26,16,21,18,12,84,69,54,30.34,30.28,30.22,10,9,5,14,4,20,0.00,4,,252
2012-2-10,32,31,29,25,21,17,85,72,58,30.19,30.05,29.91,10,6,1,16,5,24,T,8,Snow,245
2012-2-11,30,22,14,27,16,2,92,73,53,30.24,29.94,29.76,10,5,1,22,12,33,0.05,8,Snow,305
2012-2-12,24,20,16,12,10,5,68,64,59,30.24,30.20,30.16,10,7,2,15,7,23,T,7,Snow,287
2012-2-13,35,25,15,17,13,10,80,58,35,30.26,30.18,30.06,10,10,10,13,4,16,0.00,2,,248
2012-2-14,35,33,31,31,27,17,89,71,52,30.10,29.97,29.90,10,5,0,9,2,12,0.08,8,Fog-Rain-Snow,202
2012-2-15,42,38,33,32,28,24,89,73,57,30.31,30.22,30.11,10,9,6,10,4,14,T,7,,237
2012-2-16,48,43,37,44,38,29,93,82,70,30.13,30.03,29.95,10,7,2,15,5,22,0.30,8,Rain,242
2012-2-17,46,36,25,33,25,18,92,63,33,30.18,30.15,30.11,10,6,0,16,4,22,0.00,3,Fog,246
2012-2-18,46,36,26,27,22,18,78,59,40,30.20,30.09,30.03,10,10,10,21,7,31,0.00,4,,333
2012-2-19,38,29,19,20,18,16,84,64,44,30.18,30.12,30.04,10,10,10,14,6,23,0.00,2,,51
2012-2-20,42,34,25,19,17,15,75,54,33,30.40,30.28,30.14,10,10,8,10,3,13,0.00,3,,97
2012-2-21,48,37,26,35,27,18,76,60,44,30.20,29.93,29.80,10,9,2,21,7,32,0.04,6,Rain-Snow,208
2012-2-22,57,49,40,34,31,26,76,54,32,29.84,29.63,29.41,10,10,10,22,9,31,T,4,Rain,243
2012-2-23,51,41,30,36,30,22,92,61,30,29.65,29.57,29.46,10,9,5,20,4,25,0.11,5,Rain,61
2012-2-24,51,42,33,42,31,23,92,67,41,29.81,29.60,29.37,10,7,0,29,11,44,0.03,7,Fog-Snow,268
2012-2-25,34,31,28,27,20,16,78,68,58,30.38,30.01,29.79,10,6,1,22,12,32,0.01,8,Snow,273
2012-2-26,44,32,19,19,16,14,84,57,30,30.49,30.38,30.27,10,10,9,12,5,16,0.00,1,,148
2012-2-27,57,43,28,29,21,17,63,44,24,30.50,30.29,30.19,10,10,10,25,9,38,0.00,2,,235
2012-2-28,48,34,20,25,21,15,84,61,37,30.53,30.42,30.19,10,9,5,9,2,12,0.00,2,,138
2012-2-29,69,53,37,54,41,23,89,67,45,30.13,29.78,29.55,10,7,2,18,6,30,0.71,6,Rain-Thunderstorm,171